createdAt,value
2018-12-06T00:01:44.711Z,4.80
2018-12-06T00:04:13.043Z,4.80
2018-12-06T00:06:41.719Z,4.80
2018-12-06T00:09:10.157Z,4.80
2018-12-06T00:11:38.248Z,4.80
2018-12-06T00:14:06.876Z,4.80
2018-12-06T00:16:36.064Z,4.80
2018-12-06T00:19:09.168Z,4.80
2018-12-06T00:21:37.632Z,4.70
2018-12-06T00:24:06.164Z,4.70
2018-12-06T00:26:34.620Z,4.70
2018-12-06T00:29:02.748Z,4.70
2018-12-06T00:31:31.300Z,4.80
2018-12-06T00:33:59.456Z,4.80
2018-12-06T00:36:28.040Z,4.80
2018-12-06T00:38:56.583Z,4.80
2018-12-06T00:41:25.078Z,4.80
2018-12-06T00:43:53.615Z,4.80
2018-12-06T00:46:21.696Z,4.90
2018-12-06T00:48:50.809Z,4.90
2018-12-06T00:51:18.883Z,4.80
2018-12-06T00:53:47.380Z,4.90
2018-12-06T00:56:16.281Z,4.90
2018-12-06T00:58:44.961Z,4.90
2018-12-06T01:01:13.381Z,4.90
2018-12-06T01:03:41.991Z,4.80
2018-12-06T01:06:10.079Z,4.90
2018-12-06T01:08:39.120Z,4.90
2018-12-06T01:11:07.611Z,5.00
2018-12-06T01:13:36.324Z,5.00
2018-12-06T01:16:05.337Z,5.00
2018-12-06T01:18:33.832Z,5.10
2018-12-06T01:21:02.284Z,5.10
2018-12-06T01:23:30.732Z,5.10
2018-12-06T01:25:59.254Z,5.10
2018-12-06T01:28:27.961Z,5.10
2018-12-06T01:30:56.656Z,5.10
2018-12-06T01:33:25.111Z,5.10
2018-12-06T01:35:53.993Z,5.10
2018-12-06T01:38:22.425Z,5.10
2018-12-06T01:40:50.484Z,5.20
2018-12-06T01:43:19.141Z,5.20
2018-12-06T01:45:47.617Z,5.10
2018-12-06T01:48:16.393Z,5.20
2018-12-06T01:50:45.002Z,5.10
2018-12-06T01:53:13.468Z,5.20
2018-12-06T01:55:42.356Z,5.20
2018-12-06T01:58:10.776Z,5.20
2018-12-06T02:00:39.816Z,5.20
2018-12-06T02:03:08.824Z,5.60
2018-12-06T02:05:37.295Z,5.30
2018-12-06T02:08:05.812Z,5.30
2018-12-06T02:10:34.296Z,5.30
2018-12-06T02:13:02.967Z,5.20
2018-12-06T02:15:31.547Z,5.20
2018-12-06T02:18:00.024Z,5.20
2018-12-06T02:20:28.744Z,5.20
2018-12-06T02:22:57.277Z,5.10
2018-12-06T02:25:25.748Z,5.10
2018-12-06T02:27:54.235Z,5.10
2018-12-06T02:30:22.722Z,5.10
2018-12-06T02:32:51.399Z,5.10
2018-12-06T02:35:19.528Z,5.00
2018-12-06T02:37:48.459Z,5.00
2018-12-06T02:40:16.537Z,5.00
2018-12-06T02:42:45.803Z,4.90
2018-12-06T02:45:14.015Z,5.00
2018-12-06T02:47:42.072Z,5.00
2018-12-06T02:50:10.617Z,4.90
2018-12-06T02:52:38.688Z,5.00
2018-12-06T02:55:07.864Z,5.00
2018-12-06T02:57:36.256Z,5.00
2018-12-06T03:00:04.750Z,5.00
2018-12-06T03:02:33.376Z,5.00
2018-12-06T03:05:01.970Z,5.00
2018-12-06T03:07:30.391Z,5.00
2018-12-06T03:09:59.265Z,5.10
2018-12-06T03:12:27.335Z,5.00
2018-12-06T03:14:55.872Z,5.10
2018-12-06T03:17:24.625Z,5.10
2018-12-06T03:19:52.776Z,5.10
2018-12-06T03:22:21.300Z,5.10
2018-12-06T03:24:49.873Z,5.10
2018-12-06T03:27:18.033Z,5.20
2018-12-06T03:29:46.465Z,5.20
2018-12-06T03:32:14.589Z,5.20
2018-12-06T03:34:42.666Z,5.20
2018-12-06T03:37:11.140Z,5.30
2018-12-06T03:39:39.248Z,5.30
2018-12-06T03:42:07.617Z,5.30
2018-12-06T03:44:37.008Z,5.20
2018-12-06T03:47:05.376Z,5.20
2018-12-06T03:49:33.600Z,5.20
2018-12-06T03:52:02.591Z,5.20
2018-12-06T03:54:31.307Z,5.20
2018-12-06T03:56:59.408Z,5.20
2018-12-06T03:59:27.948Z,5.30
2018-12-06T04:01:56.081Z,5.30
2018-12-06T04:04:24.229Z,5.30
2018-12-06T04:06:52.616Z,5.30
2018-12-06T04:09:20.772Z,5.20
2018-12-06T04:11:48.865Z,5.30
2018-12-06T04:14:16.929Z,5.30
2018-12-06T04:16:45.271Z,5.30
2018-12-06T04:19:13.398Z,5.30
2018-12-06T04:21:41.544Z,5.30
2018-12-06T04:24:09.636Z,5.20
2018-12-06T04:26:37.702Z,5.30
2018-12-06T04:29:06.289Z,5.20
2018-12-06T04:31:35.537Z,5.20
2018-12-06T04:34:03.986Z,5.20
2018-12-06T04:36:32.061Z,5.20
2018-12-06T04:39:00.360Z,5.20
2018-12-06T04:41:29.152Z,5.30
2018-12-06T04:43:57.775Z,5.30
2018-12-06T04:46:25.909Z,5.30
2018-12-06T04:48:54.329Z,5.30
2018-12-06T04:51:22.395Z,5.40
2018-12-06T04:53:50.574Z,5.40
2018-12-06T04:56:19.973Z,5.40
2018-12-06T04:58:48.017Z,5.40
2018-12-06T05:01:16.184Z,5.40
2018-12-06T05:03:44.985Z,5.40
2018-12-06T05:06:13.136Z,5.20
2018-12-06T05:08:41.203Z,5.40
2018-12-06T05:11:09.680Z,5.40
2018-12-06T05:13:37.784Z,5.40
2018-12-06T05:16:05.875Z,5.30
2018-12-06T05:18:34.439Z,5.40
2018-12-06T05:21:02.555Z,5.40
2018-12-06T05:23:30.663Z,5.50
2018-12-06T05:25:58.776Z,5.50
2018-12-06T05:28:27.188Z,5.50
2018-12-06T05:30:55.294Z,5.50
2018-12-06T05:33:23.397Z,5.50
2018-12-06T05:35:51.501Z,5.60
2018-12-06T05:38:19.684Z,5.60
2018-12-06T05:40:48.148Z,5.60
2018-12-06T05:43:16.204Z,5.60
2018-12-06T05:45:46.089Z,5.60
2018-12-06T05:48:14.170Z,5.60
2018-12-06T05:50:42.347Z,5.60
2018-12-06T05:53:10.392Z,5.70
2018-12-06T05:55:38.940Z,5.70
2018-12-06T05:58:07.038Z,5.70
2018-12-06T06:00:35.133Z,5.70
2018-12-06T06:03:03.548Z,5.80
2018-12-06T06:05:31.621Z,5.80
2018-12-06T06:07:59.762Z,5.80
2018-12-06T06:10:28.340Z,5.90
2018-12-06T06:12:56.396Z,5.90
2018-12-06T06:15:24.465Z,5.90
2018-12-06T06:17:52.932Z,6.00
2018-12-06T06:20:21.073Z,6.00
2018-12-06T06:22:49.120Z,6.00
2018-12-06T06:25:17.581Z,6.20
2018-12-06T06:27:45.702Z,6.00
2018-12-06T06:30:13.792Z,6.00
2018-12-06T06:32:42.811Z,6.00
2018-12-06T06:35:10.861Z,6.00
2018-12-06T06:37:38.980Z,6.00
2018-12-06T06:40:07.489Z,6.00
2018-12-06T06:42:35.543Z,6.00
2018-12-06T06:45:04.074Z,6.10
2018-12-06T06:47:32.139Z,6.10
2018-12-06T06:50:00.264Z,6.20
2018-12-06T06:52:28.329Z,6.20
2018-12-06T06:54:56.403Z,6.10
2018-12-06T06:57:24.456Z,6.20
2018-12-06T06:59:52.761Z,6.20
2018-12-06T07:02:20.848Z,6.20
2018-12-06T07:04:49.361Z,6.20
2018-12-06T07:07:18.616Z,6.30
2018-12-06T07:09:46.740Z,6.30
2018-12-06T07:12:15.169Z,6.30
2018-12-06T07:14:43.231Z,6.30
2018-12-06T07:17:11.352Z,6.40
2018-12-06T07:19:39.462Z,6.40
2018-12-06T07:22:07.551Z,6.40
2018-12-06T07:24:35.600Z,6.40
2018-12-06T07:27:04.056Z,6.50
2018-12-06T07:29:32.368Z,6.40
2018-12-06T07:32:00.511Z,6.40
2018-12-06T07:34:28.807Z,6.40
2018-12-06T07:36:56.864Z,6.40
2018-12-06T07:39:25.273Z,6.40
2018-12-06T07:41:53.920Z,6.40
2018-12-06T07:44:21.990Z,6.40
2018-12-06T07:46:50.533Z,6.40
2018-12-06T07:49:18.659Z,6.40
2018-12-06T07:52:14.310Z,6.30
2018-12-06T07:54:43.160Z,6.40
2018-12-06T07:57:11.248Z,6.40
2018-12-06T07:59:43.370Z,6.40
2018-12-06T08:02:11.759Z,6.30
2018-12-06T08:04:40.891Z,6.30
2018-12-06T08:07:09.355Z,6.30
2018-12-06T08:09:37.704Z,6.30
2018-12-06T08:12:05.824Z,6.40
2018-12-06T08:14:34.384Z,6.40
2018-12-06T08:17:39.869Z,6.50
2018-12-06T08:20:10.629Z,6.60
2018-12-06T08:22:41.515Z,6.60
2018-12-06T08:25:13.615Z,6.60
2018-12-06T08:27:42.029Z,6.70
2018-12-06T08:30:10.895Z,6.60
2018-12-06T08:32:41.112Z,6.60
2018-12-06T08:35:09.200Z,6.60
2018-12-06T08:37:43.742Z,6.60
2018-12-06T08:40:11.780Z,6.50
2018-12-06T08:42:46.110Z,6.50
2018-12-06T08:45:15.155Z,6.40
2018-12-06T08:47:43.768Z,6.40
2018-12-06T08:50:15.200Z,6.50
2018-12-06T08:52:43.283Z,6.50
2018-12-06T08:55:11.369Z,6.60
2018-12-06T08:57:39.853Z,6.60
2018-12-06T09:00:10.083Z,6.60
2018-12-06T09:02:38.688Z,6.60
2018-12-06T09:05:07.357Z,6.70
2018-12-06T09:07:35.961Z,6.70
2018-12-06T09:10:05.836Z,6.80
2018-12-06T09:12:33.933Z,6.80
2018-12-06T09:15:02.395Z,6.80
2018-12-06T09:17:30.472Z,6.90
2018-12-06T09:19:58.963Z,6.90
2018-12-06T09:22:27.052Z,6.90
2018-12-06T09:24:55.455Z,7.00
2018-12-06T09:27:59.545Z,7.00
2018-12-06T09:30:32.764Z,7.10
2018-12-06T09:33:01.284Z,7.20
2018-12-06T09:35:29.907Z,7.20
2018-12-06T09:37:57.963Z,7.30
2018-12-06T09:40:26.071Z,7.30
2018-12-06T09:42:54.133Z,7.30
2018-12-06T09:47:59.588Z,7.30
2018-12-06T09:50:27.644Z,7.50
2018-12-06T09:52:56.200Z,7.50
2018-12-06T09:55:24.288Z,7.60
2018-12-06T09:57:52.778Z,7.60
2018-12-06T10:00:21.358Z,7.50
2018-12-06T10:02:49.435Z,7.50
2018-12-06T10:05:18.654Z,7.40
2018-12-06T10:07:46.947Z,7.40
2018-12-06T10:10:15.044Z,7.50
2018-12-06T10:12:43.949Z,7.50
2018-12-06T10:15:12.048Z,7.50
2018-12-06T10:17:40.172Z,7.50
2018-12-06T10:20:08.232Z,7.50
2018-12-06T10:22:36.264Z,7.50
2018-12-06T10:25:05.890Z,7.50
2018-12-06T10:27:33.936Z,7.50
2018-12-06T10:30:01.989Z,7.50
2018-12-06T10:32:30.452Z,7.60
2018-12-06T10:34:58.495Z,7.60
2018-12-06T10:37:26.996Z,7.70
2018-12-06T10:39:55.074Z,7.70
2018-12-06T10:42:23.117Z,7.70
2018-12-06T10:44:51.192Z,7.80
2018-12-06T10:47:20.487Z,7.90
2018-12-06T10:49:48.536Z,7.90
2018-12-06T10:52:17.065Z,8.00
2018-12-06T10:54:45.185Z,8.00
2018-12-06T10:57:13.287Z,8.10
2018-12-06T10:59:41.396Z,8.20
2018-12-06T11:02:15.050Z,8.00
2018-12-06T11:04:43.434Z,8.00
2018-12-06T11:07:11.488Z,7.90
2018-12-06T11:09:39.564Z,8.00
2018-12-06T11:12:07.612Z,8.10
2018-12-06T11:14:35.702Z,8.10
2018-12-06T11:17:03.799Z,8.20
2018-12-06T11:19:31.865Z,8.20
2018-12-06T11:22:00.384Z,8.20
2018-12-06T11:24:28.944Z,8.20
2018-12-06T11:26:56.989Z,8.30
2018-12-06T11:29:25.203Z,8.30
2018-12-06T11:31:53.267Z,8.40
2018-12-06T11:34:21.327Z,8.30
2018-12-06T11:36:49.691Z,8.40
2018-12-06T11:39:17.778Z,8.30
2018-12-06T11:41:45.820Z,8.40
2018-12-06T11:44:14.739Z,8.40
2018-12-06T11:46:42.804Z,8.30
2018-12-06T11:49:11.436Z,8.30
2018-12-06T11:51:40.365Z,8.30
2018-12-06T11:54:08.480Z,8.30
2018-12-06T11:56:36.607Z,8.30
2018-12-06T11:59:04.679Z,8.30
2018-12-06T12:01:32.728Z,8.30
2018-12-06T12:04:00.781Z,8.30
2018-12-06T12:06:28.840Z,8.30
2018-12-06T12:09:18.197Z,8.40
2018-12-06T12:11:47.441Z,8.40
2018-12-06T12:14:15.502Z,8.60
2018-12-06T12:16:43.864Z,8.50
2018-12-06T12:19:11.953Z,8.50
2018-12-06T12:21:40.020Z,8.50
2018-12-06T12:24:08.115Z,8.60
2018-12-06T12:26:36.176Z,8.70
2018-12-06T12:29:04.276Z,8.80
2018-12-06T12:31:32.328Z,8.80
2018-12-06T12:34:00.395Z,8.80
2018-12-06T12:36:28.868Z,8.80
2018-12-06T12:38:56.916Z,8.80
2018-12-06T12:41:25.115Z,8.80
2018-12-06T12:43:53.277Z,8.80
2018-12-06T12:46:21.470Z,8.70
2018-12-06T12:48:50.729Z,8.80
2018-12-06T12:51:19.495Z,8.80
2018-12-06T12:53:48.086Z,8.80
2018-12-06T12:56:16.760Z,8.80
2018-12-06T12:58:44.998Z,8.90
2018-12-06T13:01:13.056Z,8.90
2018-12-06T13:03:41.116Z,8.90
2018-12-06T13:06:09.212Z,9.00
2018-12-06T13:08:37.304Z,9.00
2018-12-06T13:11:06.010Z,9.00
2018-12-06T13:13:34.080Z,9.00
2018-12-06T13:16:02.226Z,9.00
2018-12-06T13:18:31.438Z,9.10
2018-12-06T13:20:59.496Z,9.10
2018-12-06T13:23:27.560Z,9.10
2018-12-06T13:25:55.639Z,9.10
2018-12-06T13:28:23.683Z,9.20
2018-12-06T13:30:52.136Z,9.20
2018-12-06T13:33:20.216Z,9.30
2018-12-06T13:35:48.284Z,9.30
2018-12-06T13:38:16.804Z,9.30
2018-12-06T13:40:45.154Z,9.30
2018-12-06T13:43:13.208Z,9.40
2018-12-06T13:45:41.765Z,9.40
2018-12-06T13:48:09.844Z,9.40
2018-12-06T13:50:37.900Z,9.50
2018-12-06T13:53:06.041Z,9.50
2018-12-06T13:55:34.364Z,9.50
2018-12-06T13:58:02.889Z,9.60
2018-12-06T14:00:31.200Z,9.60
2018-12-06T14:02:59.437Z,9.60
2018-12-06T14:05:27.827Z,9.60
2018-12-06T14:07:55.871Z,9.60
2018-12-06T14:10:31.392Z,9.60
2018-12-06T14:12:59.844Z,9.60
2018-12-06T14:15:28.030Z,9.60
2018-12-06T14:17:56.108Z,9.60
2018-12-06T14:20:25.356Z,9.70
2018-12-06T14:22:53.452Z,9.70
2018-12-06T14:25:21.799Z,9.70
2018-12-06T14:27:50.688Z,9.70
2018-12-06T14:30:18.772Z,9.70
2018-12-06T14:32:46.901Z,9.60
2018-12-06T14:35:15.420Z,9.60
2018-12-06T14:37:44.628Z,9.70
2018-12-06T14:40:12.755Z,9.70
2018-12-06T14:42:41.144Z,9.70
2018-12-06T14:45:09.662Z,9.70
2018-12-06T14:47:37.748Z,9.70
2018-12-06T14:50:07.355Z,9.70
2018-12-06T14:52:35.404Z,9.70
2018-12-06T14:55:04.249Z,9.80
2018-12-06T14:57:35.629Z,9.80
2018-12-06T15:00:05.575Z,9.80
2018-12-06T15:02:35.264Z,9.70
2018-12-06T15:05:03.489Z,9.80
2018-12-06T15:07:32.820Z,9.80
2018-12-06T15:10:00.920Z,9.80
2018-12-06T15:12:28.971Z,9.90
2018-12-06T15:14:57.460Z,9.90
2018-12-06T15:17:26.296Z,9.90
2018-12-06T15:19:54.676Z,9.90
2018-12-06T15:22:23.225Z,9.90
2018-12-06T15:24:51.472Z,9.90
2018-12-06T15:27:19.713Z,9.90
2018-12-06T15:29:48.550Z,9.90
2018-12-06T15:32:16.620Z,9.90
2018-12-06T15:34:44.852Z,9.90
2018-12-06T15:37:13.508Z,10.00
2018-12-06T15:39:41.579Z,10.00
2018-12-06T15:42:09.652Z,10.00
2018-12-06T15:44:38.403Z,10.00
2018-12-06T15:47:06.478Z,10.00
2018-12-06T15:49:34.550Z,10.10
2018-12-06T15:52:02.650Z,10.10
2018-12-06T15:54:30.720Z,10.00
2018-12-06T15:56:59.384Z,10.10
2018-12-06T15:59:29.024Z,10.10
2018-12-06T16:01:57.087Z,10.10
2018-12-06T16:04:26.608Z,10.10
2018-12-06T16:06:54.773Z,10.20
2018-12-06T16:09:23.038Z,10.10
2018-12-06T16:11:51.344Z,10.20
2018-12-06T16:14:19.524Z,10.20
2018-12-06T16:16:48.120Z,10.20
2018-12-06T16:19:16.201Z,10.30
2018-12-06T16:21:44.268Z,10.20
2018-12-06T16:24:13.479Z,10.30
2018-12-06T16:26:42.602Z,10.30
2018-12-06T16:29:10.715Z,10.30
2018-12-06T16:31:39.180Z,10.30
2018-12-06T16:34:07.319Z,10.30
2018-12-06T16:36:35.753Z,10.40
2018-12-06T16:39:06.520Z,10.40
2018-12-06T16:41:35.079Z,10.40
2018-12-06T16:44:03.713Z,10.40
2018-12-06T16:46:31.800Z,10.30
2018-12-06T16:48:59.949Z,10.50
2018-12-06T16:51:28.029Z,10.40
2018-12-06T16:53:56.632Z,10.50
2018-12-06T16:56:24.692Z,10.50
2018-12-06T16:58:52.841Z,10.50
2018-12-06T17:01:21.969Z,10.50
2018-12-06T17:03:50.352Z,10.50
2018-12-06T17:06:18.412Z,10.50
2018-12-06T17:08:46.980Z,10.50
2018-12-06T17:11:15.027Z,10.50
2018-12-06T17:13:43.115Z,10.50
2018-12-06T17:16:11.505Z,10.50
2018-12-06T17:18:39.560Z,10.50
2018-12-06T17:21:07.619Z,10.60
2018-12-06T17:23:36.059Z,10.50
2018-12-06T17:26:04.531Z,10.50
2018-12-06T17:28:32.647Z,10.50
2018-12-06T17:31:01.295Z,10.60
2018-12-06T17:33:29.345Z,10.50
2018-12-06T17:35:57.417Z,10.50
2018-12-06T17:38:25.960Z,10.50
2018-12-06T17:40:54.031Z,10.50
2018-12-06T17:43:22.096Z,10.50
2018-12-06T17:45:50.529Z,10.50
2018-12-06T17:48:18.600Z,10.60
2018-12-06T17:50:46.664Z,10.50
2018-12-06T17:53:14.760Z,10.50
2018-12-06T17:55:52.420Z,10.60
2018-12-06T17:58:20.976Z,10.50
2018-12-06T18:00:49.072Z,10.50
2018-12-06T18:03:17.181Z,10.60
2018-12-06T18:05:45.940Z,10.50
2018-12-06T18:08:14.007Z,10.50
2018-12-06T18:10:43.236Z,10.50
2018-12-06T18:13:11.375Z,10.50
2018-12-06T18:15:40.149Z,10.60
2018-12-06T18:18:08.713Z,10.60
2018-12-06T18:20:42.894Z,10.60
2018-12-06T18:23:19.325Z,10.60
2018-12-06T18:25:47.793Z,10.60
2018-12-06T18:28:16.583Z,10.60
2018-12-06T18:30:47.019Z,10.60
2018-12-06T18:33:17.388Z,10.60
2018-12-06T18:35:45.468Z,10.60
2018-12-06T18:38:14.516Z,10.60
2018-12-06T18:40:42.781Z,10.60
2018-12-06T18:43:12.193Z,10.60
2018-12-06T18:45:40.294Z,10.60
2018-12-06T18:48:08.387Z,10.60
2018-12-06T18:50:36.446Z,10.70
2018-12-06T18:53:04.508Z,10.60
2018-12-06T18:55:32.901Z,10.70
2018-12-06T18:58:00.979Z,10.70
2018-12-06T19:00:29.075Z,10.70
2018-12-06T19:02:57.128Z,10.70
2018-12-06T19:05:25.208Z,10.70
2018-12-06T19:07:53.812Z,10.80
2018-12-06T19:10:21.872Z,10.70
2018-12-06T19:12:49.924Z,10.70
2018-12-06T19:15:18.425Z,10.70
2018-12-06T19:17:46.508Z,10.70
2018-12-06T19:20:14.848Z,10.70
2018-12-06T19:22:45.368Z,10.70
2018-12-06T19:25:13.449Z,10.70
2018-12-06T19:27:41.631Z,10.70
2018-12-06T19:30:10.658Z,10.70
2018-12-06T19:32:39.445Z,10.70
2018-12-06T19:35:07.897Z,10.70
2018-12-06T19:37:35.987Z,10.70
2018-12-06T19:40:04.588Z,10.80
2018-12-06T19:42:38.745Z,10.80
2018-12-06T19:45:03.460Z,10.80
2018-12-06T19:47:31.516Z,10.80
2018-12-06T19:49:59.892Z,10.80
2018-12-06T19:52:28.352Z,10.70
2018-12-06T19:54:56.853Z,10.70
2018-12-06T19:57:24.924Z,10.70
2018-12-06T19:59:53.100Z,10.80
2018-12-06T20:02:21.659Z,10.70
2018-12-06T20:04:49.702Z,10.70
2018-12-06T20:07:17.757Z,10.70
2018-12-06T20:09:46.056Z,10.70
2018-12-06T20:12:14.128Z,10.70
2018-12-06T20:14:42.345Z,10.70
2018-12-06T20:17:10.507Z,10.70
2018-12-06T20:19:38.582Z,10.70
2018-12-06T20:22:08.273Z,10.50
2018-12-06T20:24:36.525Z,10.60
2018-12-06T20:27:04.611Z,10.60
2018-12-06T20:29:33.109Z,10.50
2018-12-06T20:32:01.691Z,10.50
2018-12-06T20:34:30.640Z,10.50
2018-12-06T20:36:59.276Z,10.50
2018-12-06T20:39:27.748Z,10.50
2018-12-06T20:41:56.054Z,10.50
2018-12-06T20:44:24.287Z,10.50
2018-12-06T20:46:53.008Z,10.50
2018-12-06T20:49:22.413Z,10.50
2018-12-06T20:51:50.497Z,10.50
2018-12-06T20:54:19.190Z,10.50
2018-12-06T20:56:47.424Z,10.50
2018-12-06T20:59:15.767Z,10.50
2018-12-06T21:01:44.284Z,10.50
2018-12-06T21:04:14.691Z,10.60
2018-12-06T21:06:43.191Z,10.50
2018-12-06T21:09:11.787Z,10.50
2018-12-06T21:11:41.050Z,10.50
2018-12-06T21:14:09.152Z,10.60
2018-12-06T21:16:37.572Z,10.50
2018-12-06T21:19:06.616Z,10.60
2018-12-06T21:21:35.104Z,10.60
2018-12-06T21:24:03.551Z,10.60
2018-12-06T21:26:32.473Z,10.60
2018-12-06T21:29:00.605Z,10.50
2018-12-06T21:31:29.220Z,10.60
2018-12-06T21:33:58.174Z,10.60
2018-12-06T21:36:26.255Z,10.60
2018-12-06T21:38:54.865Z,10.60
2018-12-06T21:41:23.932Z,10.70
2018-12-06T21:43:52.008Z,10.60
2018-12-06T21:46:20.434Z,10.60
2018-12-06T21:48:48.897Z,10.60
2018-12-06T21:51:17.472Z,10.60
2018-12-06T21:53:45.836Z,10.70
2018-12-06T21:56:13.897Z,10.70
2018-12-06T21:58:42.404Z,10.70
2018-12-06T22:01:11.291Z,10.70
2018-12-06T22:03:39.335Z,10.70
2018-12-06T22:06:07.839Z,10.80
2018-12-06T22:08:36.825Z,10.80
2018-12-06T22:11:05.272Z,10.80
2018-12-06T22:13:33.328Z,10.90
2018-12-06T22:16:02.427Z,10.80
2018-12-06T22:18:31.071Z,10.80
2018-12-06T22:20:59.748Z,10.80
2018-12-06T22:23:28.659Z,10.80
2018-12-06T22:25:57.219Z,10.80
2018-12-06T22:28:25.528Z,10.80
2018-12-06T22:30:54.500Z,10.80
2018-12-06T22:33:23.076Z,10.80
2018-12-06T22:35:51.587Z,10.80
2018-12-06T22:38:20.300Z,10.80
2018-12-06T22:40:48.376Z,10.90
2018-12-06T22:43:16.995Z,10.90
2018-12-06T22:45:49.696Z,10.90
2018-12-06T22:48:18.284Z,10.90
2018-12-06T22:50:46.876Z,10.90
2018-12-06T22:53:15.756Z,10.90
2018-12-06T22:55:44.420Z,10.90
2018-12-06T22:58:12.906Z,11.00
2018-12-06T23:00:45.308Z,11.00
2018-12-06T23:03:13.424Z,10.90
2018-12-06T23:05:41.689Z,11.00
2018-12-06T23:08:10.319Z,11.00
2018-12-06T23:10:38.434Z,11.00
2018-12-06T23:13:06.572Z,11.00
2018-12-06T23:15:35.040Z,11.00
2018-12-06T23:18:03.732Z,11.00
2018-12-06T23:20:32.309Z,11.00
2018-12-06T23:23:00.776Z,10.90
2018-12-06T23:25:29.180Z,10.90
2018-12-06T23:27:57.852Z,11.00
2018-12-06T23:30:26.132Z,11.00
2018-12-06T23:32:54.364Z,11.00
2018-12-06T23:35:22.708Z,11.00
2018-12-06T23:37:51.378Z,11.10
2018-12-06T23:40:20.293Z,11.10
2018-12-06T23:42:48.812Z,11.10
2018-12-06T23:45:17.300Z,11.10
2018-12-06T23:47:45.632Z,11.10
2018-12-06T23:50:14.251Z,11.20
2018-12-06T23:52:42.764Z,11.20
2018-12-06T23:55:11.653Z,11.10
2018-12-06T23:57:40.100Z,11.20
